Time;durP1;ratioP1;P1;durP2;ratioP2;P2;SDS_P1;SDS_P2;PMS_P1;PMS_P2;Temp;Humidity;BMP_temperature;BMP_pressure;BME280_temperature;BME280_humidity;BME280_pressure;Samples;Min_cycle;Max_cycle;Signal;HPM_P1;HPM_P2
2022/09/22 00:01:03;;;;;;;5.77;2.40;;;4.60;99.90;;;;;;5000998;28;20434;-64
2022/09/22 00:03:30;;;;;;;5.17;2.23;;;4.60;99.90;;;;;;5005656;28;20430;-64
2022/09/22 00:06:01;;;;;;;3.93;1.97;;;4.60;99.90;;;;;;5006021;28;20785;-64
2022/09/22 00:08:29;;;;;;;5.43;2.60;;;4.60;99.90;;;;;;4999749;28;21009;-64
2022/09/22 00:11:27;;;;;;;18.23;1.80;;;4.60;99.90;;;;;;5006353;28;20436;-64
2022/09/22 00:14:06;;;;;;;5.40;2.40;;;4.50;99.90;;;;;;4996477;28;20456;-64
2022/09/22 00:16:36;;;;;;;5.63;1.80;;;4.50;99.90;;;;;;5009052;28;20461;-64
2022/09/22 00:19:05;;;;;;;4.37;1.80;;;4.50;99.90;;;;;;5012709;28;20422;-64
2022/09/22 00:21:31;;;;;;;5.00;1.87;;;4.40;99.90;;;;;;5011458;28;20808;-64
2022/09/22 00:23:59;;;;;;;3.37;2.00;;;4.40;99.90;;;;;;5012467;28;20418;-64
2022/09/22 00:26:24;;;;;;;4.60;1.63;;;4.40;99.90;;;;;;5009717;28;20187;-64
2022/09/22 00:28:51;;;;;;;4.07;1.90;;;4.40;99.90;;;;;;4990502;28;20494;-64
2022/09/22 00:31:20;;;;;;;1.80;1.20;;;4.30;99.90;;;;;;5008158;28;20184;-64
2022/09/22 00:33:46;;;;;;;4.00;2.03;;;4.30;99.90;;;;;;5012052;28;20879;-64
2022/09/22 00:36:13;;;;;;;2.17;1.23;;;4.40;99.90;;;;;;5010101;28;20429;-64
2022/09/22 00:38:40;;;;;;;2.00;1.13;;;4.30;99.90;;;;;;5007616;28;20442;-64
2022/09/22 00:41:09;;;;;;;2.50;1.40;;;4.30;99.90;;;;;;5008421;28;20468;-64
2022/09/22 00:43:37;;;;;;;3.37;1.87;;;4.30;99.90;;;;;;5011108;28;20438;-64
2022/09/22 00:46:21;;;;;;;3.27;1.70;;;4.30;99.90;;;;;;5004439;28;20426;-64
2022/09/22 00:48:51;;;;;;;3.33;1.50;;;4.30;99.90;;;;;;4990342;28;20479;-64
2022/09/22 00:51:22;;;;;;;4.07;1.57;;;4.20;99.90;;;;;;5010699;28;20414;-64
2022/09/22 00:53:48;;;;;;;2.03;1.27;;;4.10;99.90;;;;;;5007383;28;20438;-64
2022/09/22 00:56:19;;;;;;;4.10;1.77;;;4.10;99.90;;;;;;5005588;28;20434;-64
2022/09/22 00:58:51;;;;;;;5.40;1.90;;;4.20;99.90;;;;;;5005971;28;20422;-64
2022/09/22 01:01:18;;;;;;;2.97;1.53;;;4.20;99.90;;;;;;5008215;28;20430;-64
2022/09/22 01:03:44;;;;;;;3.03;1.33;;;4.20;99.90;;;;;;5005370;28;20431;-64
2022/09/22 01:06:15;;;;;;;3.10;1.27;;;4.20;99.90;;;;;;5008425;28;20434;-64
2022/09/22 01:08:42;;;;;;;3.50;1.17;;;4.10;99.90;;;;;;4986741;28;20533;-64
2022/09/22 01:11:09;;;;;;;2.40;1.43;;;4.10;99.90;;;;;;5008297;28;20497;-64
2022/09/22 01:13:45;;;;;;;2.13;1.33;;;4.10;99.90;;;;;;5003689;28;20435;-64
2022/09/22 01:16:20;;;;;;;3.57;1.80;;;4.10;99.90;;;;;;5006670;28;20505;-64
2022/09/22 01:19:04;;;;;;;4.53;1.30;;;4.10;99.90;;;;;;5005548;28;20422;-64
2022/09/22 01:22:02;;;;;;;3.30;1.17;;;4.10;99.90;;;;;;5003722;28;20509;-64
2022/09/22 01:25:05;;;;;;;3.20;1.23;;;4.10;99.90;;;;;;5000057;28;20422;-64
2022/09/22 01:27:50;;;;;;;5.20;2.07;;;4.00;99.90;;;;;;4995869;28;20462;-64
2022/09/22 01:30:35;;;;;;;5.37;1.93;;;4.00;99.90;;;;;;4985262;28;20426;-64
2022/09/22 01:33:32;;;;;;;1.93;1.07;;;3.90;99.90;;;;;;5001251;28;20426;-64
2022/09/22 01:36:26;;;;;;;1.90;1.10;;;3.90;99.90;;;;;;5002742;28;20441;-64
2022/09/22 01:39:11;;;;;;;3.13;1.60;;;3.90;99.90;;;;;;4988153;28;20555;-64
2022/09/22 01:42:00;;;;;;;2.70;1.50;;;3.90;99.90;;;;;;5003168;28;20465;-64
2022/09/22 01:44:33;;;;;;;2.03;1.03;;;3.80;99.90;;;;;;4999780;28;20423;-64
2022/09/22 01:47:18;;;;;;;2.13;1.20;;;3.80;99.90;;;;;;4998186;28;20878;-64
2022/09/22 01:49:51;;;;;;;2.70;1.27;;;3.80;99.90;;;;;;4975593;28;20493;-64
2022/09/22 01:52:25;;;;;;;3.50;1.63;;;3.80;99.90;;;;;;4999137;28;20481;-64
2022/09/22 01:54:56;;;;;;;2.90;1.20;;;3.80;99.90;;;;;;5009961;28;20421;-65
2022/09/22 01:57:25;;;;;;;14.30;2.00;;;3.80;99.90;;;;;;5003904;28;20425;-64
2022/09/22 01:59:57;;;;;;;2.17;1.20;;;3.80;99.90;;;;;;4993926;28;20883;-64
2022/09/22 02:02:29;;;;;;;5.23;1.93;;;3.80;99.90;;;;;;5011549;28;20513;-64
2022/09/22 02:04:58;;;;;;;2.80;1.50;;;3.80;99.90;;;;;;5011199;28;20433;-64
2022/09/22 02:07:39;;;;;;;4.20;1.53;;;3.70;99.90;;;;;;5011729;28;20465;-64
2022/09/22 02:10:10;;;;;;;4.50;1.03;;;3.70;99.90;;;;;;5010379;28;20436;-64
2022/09/22 02:12:36;;;;;;;3.27;1.20;;;3.70;99.90;;;;;;5017270;28;20501;-64
2022/09/22 02:15:04;;;;;;;2.30;0.97;;;3.70;99.90;;;;;;5011203;28;20422;-64
2022/09/22 02:17:31;;;;;;;2.90;1.67;;;3.60;99.90;;;;;;5009336;28;20899;-64
2022/09/22 02:19:56;;;;;;;3.67;1.30;;;3.60;99.90;;;;;;5007374;28;20817;-64
2022/09/22 02:22:22;;;;;;;2.47;1.10;;;3.60;99.90;;;;;;5015559;28;20429;-64
2022/09/22 02:24:48;;;;;;;2.97;0.90;;;3.60;99.90;;;;;;4994524;28;20302;-64
2022/09/22 02:27:22;;;;;;;1.97;0.80;;;3.60;99.90;;;;;;5013683;28;20202;-64
2022/09/22 02:30:09;;;;;;;2.40;1.07;;;3.50;99.90;;;;;;5011268;28;20216;-64
2022/09/22 02:32:38;;;;;;;1.60;1.00;;;3.50;99.90;;;;;;5008893;28;20424;-64
2022/09/22 02:35:06;;;;;;;2.20;1.43;;;3.40;99.90;;;;;;5014008;28;20488;-64
2022/09/22 02:38:03;;;;;;;1.50;0.83;;;3.40;99.90;;;;;;5008499;28;20431;-64
2022/09/22 02:40:35;;;;;;;1.60;0.93;;;3.40;99.90;;;;;;4989931;28;20822;-64
2022/09/22 02:43:23;;;;;;;3.30;1.73;;;3.40;99.90;;;;;;5008270;28;20432;-64
2022/09/22 02:45:58;;;;;;;2.63;1.60;;;3.40;99.90;;;;;;4990916;28;20977;-64
2022/09/22 02:48:33;;;;;;;1.73;1.10;;;3.30;99.90;;;;;;5003300;28;20498;-64
2022/09/22 02:51:00;;;;;;;1.60;0.90;;;3.40;99.90;;;;;;5010126;28;20497;-64
2022/09/22 02:53:26;;;;;;;3.03;1.30;;;3.30;99.90;;;;;;4995035;28;20945;-64
2022/09/22 02:55:51;;;;;;;4.20;1.80;;;3.40;99.90;;;;;;5002619;28;20419;-64
2022/09/22 02:58:17;;;;;;;2.60;1.73;;;3.40;99.90;;;;;;5008282;28;20749;-64
2022/09/22 03:00:44;;;;;;;1.87;1.10;;;3.40;99.90;;;;;;5008693;28;20195;-64
2022/09/22 03:03:10;;;;;;;5.30;1.30;;;3.30;99.90;;;;;;5013110;28;20195;-64
2022/09/22 03:05:36;;;;;;;4.33;1.30;;;3.30;99.90;;;;;;5007266;28;20917;-64
2022/09/22 03:08:03;;;;;;;3.23;1.33;;;3.30;99.90;;;;;;5012751;28;20549;-64
2022/09/22 03:10:29;;;;;;;4.47;1.30;;;3.30;99.90;;;;;;5001692;28;20430;-64
2022/09/22 03:12:56;;;;;;;11.87;1.70;;;3.30;99.90;;;;;;5007327;28;20417;-64
2022/09/22 03:15:22;;;;;;;2.47;1.30;;;3.30;99.90;;;;;;5006553;28;20180;-64
2022/09/22 03:17:47;;;;;;;2.23;1.33;;;3.20;99.90;;;;;;5017129;28;20798;-64
2022/09/22 03:20:14;;;;;;;1.90;0.70;;;3.30;99.90;;;;;;5017595;28;20509;-64
2022/09/22 03:22:40;;;;;;;2.03;0.73;;;3.20;99.90;;;;;;4994083;28;20200;-64
2022/09/22 03:25:07;;;;;;;3.90;1.00;;;3.20;99.90;;;;;;4995525;28;20516;-64
2022/09/22 03:27:33;;;;;;;3.50;1.50;;;3.20;99.90;;;;;;5010280;28;20480;-65
2022/09/22 03:29:59;;;;;;;2.43;1.33;;;3.20;99.90;;;;;;5012794;28;20414;-65
2022/09/22 03:32:24;;;;;;;2.03;1.10;;;3.20;99.90;;;;;;5012269;28;20207;-65
2022/09/22 03:34:50;;;;;;;1.97;1.23;;;3.20;99.90;;;;;;5012496;28;20183;-65
2022/09/22 03:37:16;;;;;;;2.13;1.37;;;3.20;99.90;;;;;;5011812;28;20194;-65
2022/09/22 03:39:42;;;;;;;2.90;1.30;;;3.20;99.90;;;;;;5011869;28;20278;-65
2022/09/22 03:42:08;;;;;;;2.57;1.07;;;3.10;99.90;;;;;;5011265;28;20522;-65
2022/09/22 03:44:34;;;;;;;2.93;1.10;;;3.10;99.90;;;;;;5010181;28;20202;-65
2022/09/22 03:46:59;;;;;;;2.03;1.10;;;3.10;99.90;;;;;;5006356;28;20457;-64
2022/09/22 03:49:26;;;;;;;3.23;1.63;;;3.10;99.90;;;;;;5000803;28;20237;-65
2022/09/22 03:51:52;;;;;;;1.80;0.90;;;3.10;99.90;;;;;;5007216;28;20207;-65
2022/09/22 03:54:18;;;;;;;3.53;1.17;;;3.00;99.90;;;;;;5008801;28;20425;-64
2022/09/22 03:56:44;;;;;;;2.23;1.13;;;3.00;99.90;;;;;;5003907;28;20844;-65
2022/09/22 03:59:10;;;;;;;3.30;1.30;;;3.00;99.90;;;;;;5007730;28;20582;-65
2022/09/22 04:01:36;;;;;;;1.73;0.93;;;3.00;99.90;;;;;;5009499;28;20237;-64
2022/09/22 04:04:02;;;;;;;3.10;1.40;;;3.00;99.90;;;;;;4986952;28;20490;-65
2022/09/22 04:06:28;;;;;;;4.00;1.67;;;3.00;99.90;;;;;;5006380;28;20922;-65
2022/09/22 04:08:53;;;;;;;4.23;1.87;;;3.00;99.90;;;;;;5007225;28;20497;-65
2022/09/22 04:11:19;;;;;;;4.00;1.87;;;3.00;99.90;;;;;;5008624;28;20179;-65
2022/09/22 04:13:45;;;;;;;2.10;1.37;;;3.00;99.90;;;;;;5005275;28;20179;-65
2022/09/22 04:16:10;;;;;;;2.67;1.10;;;2.90;99.90;;;;;;4989720;28;20205;-64
2022/09/22 04:18:39;;;;;;;6.80;1.57;;;2.90;99.90;;;;;;5005032;28;20187;-65
2022/09/22 04:21:05;;;;;;;3.30;1.40;;;2.90;99.90;;;;;;5007844;28;20639;-65
2022/09/22 04:23:31;;;;;;;2.17;1.40;;;3.00;99.90;;;;;;5004595;28;20434;-65
2022/09/22 04:25:57;;;;;;;4.60;2.10;;;3.00;99.90;;;;;;5005623;28;20430;-65
2022/09/22 04:28:24;;;;;;;8.73;2.10;;;3.00;99.90;;;;;;4999910;28;20207;-65
2022/09/22 04:30:49;;;;;;;3.17;1.80;;;3.00;99.90;;;;;;5002655;28;20501;-65
2022/09/22 04:33:16;;;;;;;6.17;2.63;;;3.00;99.90;;;;;;5008010;28;20512;-64
2022/09/22 04:35:41;;;;;;;7.13;2.73;;;2.90;99.90;;;;;;5005208;28;20344;-65
2022/09/22 04:38:08;;;;;;;5.93;2.47;;;2.90;99.90;;;;;;5001443;28;21149;-65
2022/09/22 04:40:33;;;;;;;7.13;3.10;;;2.80;99.90;;;;;;5012891;28;20187;-64
2022/09/22 04:42:59;;;;;;;6.03;2.90;;;2.80;99.90;;;;;;5013107;28;20429;-65
2022/09/22 04:45:25;;;;;;;10.93;3.20;;;2.80;99.90;;;;;;5007425;28;20191;-65
2022/09/22 04:47:52;;;;;;;7.07;2.40;;;2.70;99.90;;;;;;5011967;28;20238;-65
2022/09/22 04:50:20;;;;;;;6.47;3.20;;;2.70;99.90;;;;;;5010991;28;20262;-65
2022/09/22 04:52:46;;;;;;;5.20;2.30;;;2.70;99.90;;;;;;5012196;28;20422;-65
2022/09/22 04:55:13;;;;;;;3.77;1.80;;;2.70;99.90;;;;;;5009674;28;20488;-64
2022/09/22 04:57:38;;;;;;;5.33;2.07;;;2.70;99.90;;;;;;4987195;28;20444;-65
2022/09/22 05:00:05;;;;;;;4.03;2.03;;;2.70;99.90;;;;;;4990205;28;20939;-65
2022/09/22 05:02:32;;;;;;;6.43;2.27;;;2.70;99.90;;;;;;4990691;28;20191;-65
2022/09/22 05:04:58;;;;;;;3.70;2.27;;;2.70;99.90;;;;;;5008517;28;20433;-65
2022/09/22 05:07:24;;;;;;;4.20;1.93;;;2.60;99.90;;;;;;4990034;28;20475;-65
2022/09/22 05:09:49;;;;;;;3.90;2.00;;;2.60;99.90;;;;;;5008778;28;20187;-65
2022/09/22 05:12:15;;;;;;;3.43;2.03;;;2.60;99.90;;;;;;5010389;28;20674;-65
2022/09/22 05:14:41;;;;;;;2.43;1.17;;;2.60;99.90;;;;;;5007888;28;20186;-65
2022/09/22 05:17:07;;;;;;;2.57;1.63;;;2.60;99.90;;;;;;4991273;28;20195;-65
2022/09/22 05:19:32;;;;;;;4.00;2.53;;;2.60;99.90;;;;;;5007169;28;20666;-64
2022/09/22 05:21:59;;;;;;;2.93;1.60;;;2.60;99.90;;;;;;5008495;28;20301;-65
2022/09/22 05:24:26;;;;;;;5.00;2.17;;;2.60;99.90;;;;;;5006905;28;20507;-65
2022/09/22 05:26:52;;;;;;;5.10;2.00;;;2.60;99.90;;;;;;5007122;28;20450;-64
2022/09/22 05:29:17;;;;;;;2.60;1.00;;;2.60;99.90;;;;;;5006052;28;20417;-64
2022/09/22 05:31:44;;;;;;;4.97;1.60;;;2.70;99.90;;;;;;5007255;28;20420;-64
2022/09/22 05:34:10;;;;;;;3.27;2.03;;;2.70;99.90;;;;;;4988973;28;20191;-64
2022/09/22 05:36:36;;;;;;;3.63;1.93;;;2.70;99.90;;;;;;5003109;28;20910;-65
2022/09/22 05:39:02;;;;;;;3.70;1.60;;;2.70;99.90;;;;;;4998827;28;20198;-65
2022/09/22 05:41:27;;;;;;;5.77;1.90;;;2.70;99.90;;;;;;5000961;28;20183;-65
2022/09/22 05:43:53;;;;;;;5.17;1.23;;;2.80;99.90;;;;;;5000601;28;20183;-65
2022/09/22 05:46:18;;;;;;;4.00;2.27;;;2.80;99.90;;;;;;4998989;28;20195;-64
2022/09/22 05:48:44;;;;;;;4.03;1.60;;;2.80;99.90;;;;;;5006073;28;20265;-64
2022/09/22 05:51:09;;;;;;;4.27;1.73;;;2.80;99.90;;;;;;4995410;28;20879;-64
2022/09/22 05:53:35;;;;;;;4.63;1.90;;;2.90;99.90;;;;;;5004147;28;20182;-65
2022/09/22 05:56:01;;;;;;;3.03;1.77;;;3.00;99.90;;;;;;5002410;28;21017;-65
2022/09/22 05:58:26;;;;;;;2.77;2.20;;;2.90;99.90;;;;;;4995313;28;20180;-64
2022/09/22 06:00:56;;;;;;;3.80;2.43;;;3.00;99.90;;;;;;5001559;28;20223;-65
2022/09/22 06:03:22;;;;;;;6.90;2.77;;;3.10;99.90;;;;;;4980924;28;20191;-66
2022/09/22 06:05:47;;;;;;;8.37;4.07;;;3.10;99.90;;;;;;5001872;28;20442;-64
2022/09/22 06:08:13;;;;;;;10.20;5.83;;;3.10;99.90;;;;;;5004684;28;20214;-65
2022/09/22 06:10:39;;;;;;;12.03;5.40;;;3.20;99.90;;;;;;5001433;28;20202;-64
2022/09/22 06:13:09;;;;;;;19.10;5.77;;;3.30;99.90;;;;;;5003799;28;20186;-64
2022/09/22 06:15:35;;;;;;;10.43;5.50;;;3.40;99.90;;;;;;4983873;28;20624;-64
2022/09/22 06:18:02;;;;;;;7.87;4.47;;;3.40;99.90;;;;;;5010015;28;20430;-64
2022/09/22 06:20:28;;;;;;;5.93;3.87;;;3.40;99.90;;;;;;5010540;28;20424;-64
2022/09/22 06:22:55;;;;;;;7.00;4.30;;;3.50;99.90;;;;;;4990917;28;20798;-64
2022/09/22 06:25:22;;;;;;;9.33;4.90;;;3.60;99.90;;;;;;5007480;28;20191;-64
2022/09/22 06:28:01;;;;;;;6.03;3.30;;;3.70;99.90;;;;;;4986657;28;20466;-64
2022/09/22 06:30:26;;;;;;;5.83;3.30;;;3.80;99.90;;;;;;5008486;28;20516;-64
2022/09/22 06:32:54;;;;;;;16.20;3.93;;;3.80;99.90;;;;;;5006021;28;20526;-65
2022/09/22 06:35:19;;;;;;;5.30;3.33;;;3.80;99.90;;;;;;5007820;28;20183;-65
2022/09/22 06:37:47;;;;;;;8.80;4.10;;;4.00;99.90;;;;;;5006401;28;20460;-66
2022/09/22 06:40:13;;;;;;;5.30;2.93;;;4.20;99.90;;;;;;5008412;28;20222;-65
2022/09/22 06:42:41;;;;;;;9.27;2.83;;;4.30;99.90;;;;;;5004320;28;20977;-66
2022/09/22 06:45:07;;;;;;;10.83;2.87;;;4.40;99.90;;;;;;5004356;28;20187;-66
2022/09/22 06:47:33;;;;;;;4.00;2.40;;;4.60;99.90;;;;;;5003786;28;20466;-65
2022/09/22 06:50:03;;;;;;;4.27;2.37;;;4.70;99.90;;;;;;5007536;28;20428;-65
2022/09/22 06:52:29;;;;;;;4.73;3.23;;;4.80;99.90;;;;;;4995669;28;20184;-65
2022/09/22 06:54:57;;;;;;;4.13;2.70;;;5.00;99.90;;;;;;5006867;28;20425;-65
2022/09/22 06:57:23;;;;;;;4.83;2.47;;;5.20;99.90;;;;;;4983423;28;20411;-65
2022/09/22 06:59:49;;;;;;;6.10;2.90;;;5.40;99.90;;;;;;5005976;28;20468;-65
2022/09/22 07:02:14;;;;;;;5.63;2.77;;;5.60;99.90;;;;;;5004692;28;20414;-65
2022/09/22 07:04:40;;;;;;;6.03;3.20;;;5.80;99.90;;;;;;5010584;28;20187;-65
2022/09/22 07:07:05;;;;;;;4.60;2.70;;;6.10;99.90;;;;;;5000521;28;20235;-65
2022/09/22 07:09:31;;;;;;;7.33;3.10;;;6.50;99.90;;;;;;5010196;28;20662;-65
2022/09/22 07:11:57;;;;;;;6.53;3.37;;;6.80;99.90;;;;;;5004699;28;20185;-65
2022/09/22 07:14:24;;;;;;;4.90;2.90;;;7.30;99.90;;;;;;5009183;28;20218;-66
2022/09/22 07:16:51;;;;;;;4.67;2.30;;;7.70;99.90;;;;;;4980145;28;20183;-66
2022/09/22 07:19:17;;;;;;;4.67;2.57;;;8.30;99.90;;;;;;5009420;28;20425;-66
2022/09/22 07:21:43;;;;;;;5.43;2.80;;;9.00;99.90;;;;;;5003801;28;20426;-65
2022/09/22 07:24:09;;;;;;;5.73;2.17;;;9.40;99.90;;;;;;5009005;28;20182;-65
2022/09/22 07:26:38;;;;;;;4.37;2.00;;;9.80;99.90;;;;;;4996455;28;20418;-66
2022/09/22 07:29:07;;;;;;;7.13;2.20;;;10.20;99.90;;;;;;5007503;28;20500;-65
2022/09/22 07:31:33;;;;;;;4.83;2.00;;;10.70;99.90;;;;;;4985440;28;20426;-66
2022/09/22 07:33:59;;;;;;;11.47;2.03;;;11.50;99.90;;;;;;5014072;28;20497;-66
2022/09/22 07:36:27;;;;;;;2.97;1.53;;;12.50;98.90;;;;;;5014157;28;20518;-66
2022/09/22 07:38:56;;;;;;;3.57;1.90;;;13.40;97.20;;;;;;5012179;28;20461;-66
2022/09/22 07:41:26;;;;;;;4.17;2.07;;;14.30;95.20;;;;;;5013845;28;20426;-66
2022/09/22 07:45:11;;;;;;;3.83;1.73;;;14.60;93.80;;;;;;5012411;28;20457;-66
2022/09/22 07:46:46;;;;;;;3.23;1.23;;;15.20;92.80;;;;;;5008908;28;20434;-66
2022/09/22 07:49:14;;;;;;;4.67;1.70;;;15.80;91.20;;;;;;5012463;28;20414;-66
2022/09/22 07:51:40;;;;;;;3.37;1.80;;;16.20;90.80;;;;;;4999198;28;20179;-66
2022/09/22 07:54:06;;;;;;;11.23;2.13;;;16.10;90.80;;;;;;5008027;28;20414;-66
2022/09/22 07:56:39;;;;;;;4.50;1.90;;;16.70;89.90;;;;;;5011959;28;20517;-66
2022/09/22 07:59:09;;;;;;;3.07;1.53;;;17.10;87.00;;;;;;5006313;28;20526;-66
2022/09/22 08:01:37;;;;;;;3.60;1.90;;;17.60;85.00;;;;;;5010038;28;20414;-66
2022/09/22 08:04:03;;;;;;;6.50;1.73;;;17.90;82.80;;;;;;5011381;28;20430;-66
2022/09/22 08:06:30;;;;;;;4.30;1.80;;;18.00;82.90;;;;;;5003496;28;20415;-66
2022/09/22 08:08:56;;;;;;;4.23;1.27;;;17.60;82.90;;;;;;5008786;28;20209;-66
2022/09/22 08:11:27;;;;;;;3.80;1.87;;;17.50;83.70;;;;;;5008817;28;20497;-66
2022/09/22 08:14:04;;;;;;;2.43;1.53;;;17.30;84.00;;;;;;5009795;28;20915;-66
2022/09/22 08:16:33;;;;;;;3.17;1.80;;;17.00;84.00;;;;;;5006534;28;20429;-66
2022/09/22 08:19:02;;;;;;;2.90;1.43;;;17.00;83.80;;;;;;5010459;28;20418;-66
2022/09/22 08:21:32;;;;;;;2.13;1.03;;;16.40;84.90;;;;;;5006341;28;20567;-66
2022/09/22 08:23:58;;;;;;;3.17;1.50;;;15.80;86.70;;;;;;5009986;28;20414;-66
2022/09/22 08:26:23;;;;;;;3.40;1.60;;;15.10;89.20;;;;;;5005362;28;20458;-65
2022/09/22 08:28:53;;;;;;;8.90;1.60;;;15.20;88.30;;;;;;5008897;28;20557;-65
2022/09/22 08:31:20;;;;;;;3.73;1.60;;;15.20;88.20;;;;;;5005407;28;20196;-66
2022/09/22 08:33:48;;;;;;;3.53;1.10;;;15.20;88.40;;;;;;5006794;28;20453;-65
2022/09/22 08:36:15;;;;;;;2.43;1.10;;;15.30;88.10;;;;;;5003611;28;20466;-66
2022/09/22 08:38:41;;;;;;;3.27;1.77;;;15.10;90.20;;;;;;5007614;28;20469;-66
2022/09/22 08:41:20;;;;;;;2.77;1.00;;;15.20;87.90;;;;;;5003612;28;20440;-66
2022/09/22 08:43:54;;;;;;;9.53;1.50;;;14.80;89.60;;;;;;5006390;28;20414;-66
2022/09/22 08:46:42;;;;;;;2.50;1.20;;;15.20;90.00;;;;;;5002750;28;21139;-66
2022/09/22 08:52:41;;;;;;;2.50;1.17;;;15.90;85.90;;;;;;5001436;28;20410;-66
2022/09/22 08:55:18;;;;;;;2.57;1.10;;;15.60;86.80;;;;;;4997327;28;20956;-66
2022/09/22 08:58:08;;;;;;;2.70;1.00;;;16.20;85.70;;;;;;4990845;28;20432;-66
2022/09/22 09:00:53;;;;;;;3.57;1.77;;;15.90;85.60;;;;;;5000444;28;20465;-66
2022/09/22 09:04:00;;;;;;;2.10;0.80;;;16.40;85.20;;;;;;4996060;28;20410;-66
2022/09/22 09:06:57;;;;;;;2.10;0.83;;;16.20;86.20;;;;;;4967480;28;20544;-66
2022/09/22 09:09:42;;;;;;;2.57;1.10;;;16.60;84.10;;;;;;4997423;28;20438;-66
2022/09/22 09:12:41;;;;;;;2.17;1.03;;;16.30;85.30;;;;;;5000375;28;20429;-66
2022/09/22 09:15:25;;;;;;;2.23;1.00;;;16.10;85.00;;;;;;5007316;28;20434;-66
2022/09/22 09:17:55;;;;;;;2.17;1.03;;;16.50;84.20;;;;;;5000322;28;20464;-66
2022/09/22 09:20:29;;;;;;;2.17;1.13;;;16.30;85.40;;;;;;5010810;28;20802;-66
2022/09/22 09:22:55;;;;;;;2.17;1.30;;;16.10;86.90;;;;;;5006742;28;20526;-67
2022/09/22 09:25:42;;;;;;;3.20;1.00;;;15.90;87.30;;;;;;5008963;28;20508;-67
2022/09/22 09:28:21;;;;;;;3.40;1.13;;;15.90;86.50;;;;;;5007502;28;20528;-67
2022/09/22 09:30:52;;;;;;;2.30;1.10;;;15.90;87.80;;;;;;5009426;28;20418;-67
2022/09/22 09:33:24;;;;;;;2.43;0.80;;;16.20;86.40;;;;;;5010102;28;20432;-67
2022/09/22 09:35:52;;;;;;;2.77;1.23;;;16.00;85.40;;;;;;5007075;28;21017;-66
2022/09/22 09:38:31;;;;;;;3.27;1.47;;;15.40;85.80;;;;;;5007913;28;20476;-66
2022/09/22 09:41:11;;;;;;;2.10;0.70;;;15.30;87.00;;;;;;4999164;28;20454;-64
2022/09/22 09:43:41;;;;;;;2.33;0.77;;;15.00;86.80;;;;;;4999739;28;20425;-64
2022/09/22 09:46:25;;;;;;;3.77;1.20;;;14.80;87.80;;;;;;4972828;28;20915;-64
2022/09/22 09:49:04;;;;;;;3.80;1.00;;;14.90;87.00;;;;;;5002906;28;20463;-64
2022/09/22 09:51:34;;;;;;;2.40;1.10;;;15.00;86.80;;;;;;4986714;28;20524;-64
2022/09/22 09:54:04;;;;;;;1.60;0.63;;;14.70;88.20;;;;;;4995871;28;20465;-64
2022/09/22 09:56:31;;;;;;;3.63;1.13;;;14.60;87.80;;;;;;5002707;28;20498;-64
2022/09/22 10:01:52;;;;;;;1.40;0.60;;;14.70;89.90;;;;;;5001212;28;20610;-64
2022/09/22 10:04:34;;;;;;;2.47;1.00;;;14.90;88.60;;;;;;4998804;28;20473;-65
2022/09/22 10:07:11;;;;;;;2.67;0.70;;;14.90;88.00;;;;;;4981162;28;20450;-64
2022/09/22 10:09:38;;;;;;;1.60;0.70;;;14.80;88.40;;;;;;5001807;28;20930;-64
2022/09/22 10:12:03;;;;;;;2.50;1.00;;;14.90;86.80;;;;;;4993234;28;20418;-64
2022/09/22 10:14:32;;;;;;;2.63;0.80;;;14.90;87.30;;;;;;4987449;28;20752;-64
2022/09/22 10:16:58;;;;;;;4.97;1.00;;;15.20;88.00;;;;;;4986555;28;20268;-65
2022/09/22 10:19:29;;;;;;;1.60;0.80;;;15.20;88.20;;;;;;4987462;28;20512;-65
2022/09/22 10:22:15;;;;;;;1.50;0.70;;;15.40;86.50;;;;;;4986991;28;20935;-66
2022/09/22 10:24:50;;;;;;;2.60;0.90;;;15.30;86.00;;;;;;4985147;28;20412;-66
2022/09/22 10:27:20;;;;;;;2.10;0.93;;;15.30;85.40;;;;;;4990446;28;20512;-65
2022/09/22 10:29:46;;;;;;;1.83;0.97;;;15.40;86.30;;;;;;4988576;28;20454;-66
2022/09/22 10:32:15;;;;;;;1.83;0.73;;;15.60;86.60;;;;;;4986786;28;20791;-66
2022/09/22 10:34:46;;;;;;;2.10;0.97;;;15.50;87.60;;;;;;4994923;28;20262;-65
2022/09/22 10:37:15;;;;;;;2.00;0.87;;;15.60;87.10;;;;;;4991877;28;20437;-66
2022/09/22 10:39:51;;;;;;;3.17;1.00;;;15.60;86.80;;;;;;4988607;28;21022;-65
2022/09/22 10:42:34;;;;;;;1.60;0.70;;;15.50;87.60;;;;;;5000262;28;20935;-66
2022/09/22 10:45:14;;;;;;;3.03;0.80;;;15.70;85.20;;;;;;4994360;28;20433;-66
2022/09/22 10:47:51;;;;;;;1.70;0.77;;;15.80;84.80;;;;;;5012937;28;20488;-65
2022/09/22 10:50:30;;;;;;;1.87;0.80;;;15.80;86.10;;;;;;4992931;28;20450;-66
2022/09/22 10:53:17;;;;;;;1.90;0.80;;;15.90;83.90;;;;;;5004343;28;20424;-66
2022/09/22 10:56:16;;;;;;;1.80;0.77;;;15.90;87.30;;;;;;5011325;28;20464;-65
2022/09/22 10:58:54;;;;;;;3.33;1.07;;;15.90;84.90;;;;;;4956453;28;21132;-66
2022/09/22 11:01:32;;;;;;;1.70;0.70;;;15.70;84.80;;;;;;4992407;28;20418;-66
2022/09/22 11:04:10;;;;;;;2.03;0.97;;;15.90;87.20;;;;;;5009800;28;20424;-66
2022/09/22 11:13:18;;;;;;;11.70;1.00;;;16.50;81.20;;;;;;5005358;28;20409;-66
2022/09/22 11:15:54;;;;;;;1.97;0.90;;;16.40;83.10;;;;;;5000048;28;20406;-66
2022/09/22 11:18:56;;;;;;;2.00;0.80;;;16.60;81.60;;;;;;5007593;28;20418;-66
2022/09/22 11:21:44;;;;;;;2.07;0.80;;;16.60;81.00;;;;;;5003177;28;20453;-66
2022/09/22 11:24:09;;;;;;;2.60;1.07;;;16.50;81.70;;;;;;5002918;28;20429;-66
2022/09/22 11:26:42;;;;;;;2.10;1.00;;;16.60;81.60;;;;;;4995871;28;20474;-66
2022/09/22 11:29:54;;;;;;;3.93;1.20;;;16.80;80.90;;;;;;5008970;28;20204;-66
2022/09/22 11:32:31;;;;;;;2.03;0.77;;;16.80;81.20;;;;;;5001627;28;20416;-66
2022/09/22 11:35:25;;;;;;;1.30;0.50;;;17.00;79.90;;;;;;5006594;28;20517;-66
2022/09/22 11:38:29;;;;;;;1.60;0.80;;;17.10;79.00;;;;;;5002721;28;21262;-66
2022/09/22 11:40:59;;;;;;;2.07;0.77;;;17.20;79.00;;;;;;4987150;28;20434;-66
2022/09/22 11:43:58;;;;;;;2.13;0.87;;;17.30;77.70;;;;;;4993289;28;20452;-66
2022/09/22 11:46:35;;;;;;;1.97;0.93;;;16.90;79.60;;;;;;4996527;28;20410;-66
2022/09/22 11:49:24;;;;;;;1.40;0.60;;;16.70;79.60;;;;;;5003836;28;20859;-66
2022/09/22 11:52:18;;;;;;;1.50;0.60;;;16.90;81.60;;;;;;4992927;28;20818;-66
2022/09/22 11:55:22;;;;;;;2.70;0.90;;;17.10;77.90;;;;;;5003210;28;20421;-65
2022/09/22 11:57:52;;;;;;;3.60;0.80;;;17.20;80.20;;;;;;4993462;28;20446;-66
2022/09/22 12:00:20;;;;;;;2.63;0.80;;;17.20;79.00;;;;;;5010456;28;20410;-66
2022/09/22 12:02:57;;;;;;;2.57;0.80;;;17.40;77.80;;;;;;5013729;28;20414;-65
2022/09/22 12:05:31;;;;;;;1.77;0.90;;;17.60;78.30;;;;;;5012869;28;20414;-66
2022/09/22 12:08:11;;;;;;;1.73;0.70;;;17.40;78.10;;;;;;5013519;28;20551;-66
2022/09/22 12:10:41;;;;;;;2.07;0.83;;;17.50;76.90;;;;;;5002995;28;20414;-66
2022/09/22 12:13:15;;;;;;;1.60;0.50;;;17.40;76.00;;;;;;5011971;28;20421;-66
2022/09/22 12:16:00;;;;;;;2.70;0.70;;;17.50;74.90;;;;;;5002064;28;20438;-66
2022/09/22 12:18:35;;;;;;;2.93;0.80;;;17.70;75.00;;;;;;5007999;28;20418;-66
2022/09/22 12:21:27;;;;;;;1.30;0.50;;;17.90;73.20;;;;;;4977463;28;20965;-66
2022/09/22 12:23:54;;;;;;;2.63;0.80;;;17.80;74.40;;;;;;4998012;28;20922;-66
2022/09/22 12:26:34;;;;;;;1.60;0.57;;;17.90;77.30;;;;;;5003317;28;20434;-66
2022/09/22 12:29:05;;;;;;;1.80;0.63;;;18.20;75.70;;;;;;5006217;28;20465;-66
2022/09/22 12:31:37;;;;;;;1.40;0.60;;;18.20;76.10;;;;;;4980982;28;20442;-66
2022/09/22 12:34:05;;;;;;;1.60;0.70;;;18.50;70.90;;;;;;5009380;28;20465;-65
2022/09/22 12:36:35;;;;;;;1.47;0.53;;;18.30;73.20;;;;;;4992600;28;20441;-65
2022/09/22 12:39:16;;;;;;;3.00;0.80;;;17.90;72.90;;;;;;4985818;28;20450;-65
2022/09/22 12:42:07;;;;;;;2.07;0.73;;;18.00;75.30;;;;;;4998294;28;20441;-65
2022/09/22 12:44:57;;;;;;;3.10;1.07;;;18.50;72.30;;;;;;4964342;28;20423;-65
2022/09/22 12:47:32;;;;;;;1.50;0.60;;;18.40;73.20;;;;;;4998600;28;20853;-65
2022/09/22 12:50:00;;;;;;;1.40;0.60;;;18.40;71.90;;;;;;4996300;28;20409;-65
2022/09/22 12:52:41;;;;;;;2.00;0.70;;;18.70;70.40;;;;;;5009157;28;20425;-65
2022/09/22 12:55:18;;;;;;;5.13;0.70;;;18.50;71.60;;;;;;5001987;28;20418;-65
2022/09/22 12:57:46;;;;;;;1.97;0.80;;;18.50;71.50;;;;;;5006904;28;20457;-65
2022/09/22 13:00:16;;;;;;;1.60;0.70;;;18.40;72.10;;;;;;5008588;28;20426;-65
2022/09/22 13:02:46;;;;;;;1.40;0.60;;;18.70;71.30;;;;;;5009041;28;20512;-65
2022/09/22 13:05:24;;;;;;;2.47;0.83;;;19.50;68.30;;;;;;5008564;28;20428;-65
2022/09/22 13:07:52;;;;;;;1.73;0.90;;;19.10;69.90;;;;;;5006947;28;20474;-65
2022/09/22 13:10:23;;;;;;;1.70;0.63;;;19.10;69.20;;;;;;5009777;28;20580;-66
2022/09/22 13:15:45;;;;;;;1.30;0.50;;;19.00;68.10;;;;;;4991838;28;20518;-65
2022/09/22 13:18:36;;;;;;;1.50;0.67;;;19.00;71.10;;;;;;5000184;28;20775;-65
2022/09/22 13:21:19;;;;;;;4.13;0.83;;;18.60;67.80;;;;;;4998957;28;20419;-65
2022/09/22 13:23:54;;;;;;;2.23;0.70;;;18.20;69.00;;;;;;4991231;28;20470;-65
2022/09/22 13:26:37;;;;;;;1.73;0.80;;;18.40;68.20;;;;;;4998599;28;20445;-65
2022/09/22 13:29:15;;;;;;;1.50;0.60;;;18.40;68.80;;;;;;5000226;28;20466;-65
2022/09/22 13:31:55;;;;;;;2.50;0.80;;;18.30;68.00;;;;;;5004031;28;20466;-65
2022/09/22 13:34:33;;;;;;;2.60;1.07;;;18.30;68.90;;;;;;4994133;28;20434;-65